Time;durP1;ratioP1;P1;durP2;ratioP2;P2;SDS_P1;SDS_P2;PMS_P1;PMS_P2;Temp;Humidity;BMP_temperature;BMP_pressure;BME280_temperature;BME280_humidity;BME280_pressure;Samples;Min_cycle;Max_cycle;Signal;HPM_P1;HPM_P2
2023/02/08 00:03:57;;;;;;;67.72;36.53;;;;;;;-6.62;95.56;102449.84;10463412;28;20491;-77
2023/02/08 00:09:00;;;;;;;76.80;38.92;;;;;;;-6.85;96.64;102458.31;10446232;28;20048;-76
2023/02/08 00:14:02;;;;;;;72.47;38.63;;;;;;;-7.01;97.41;102460.44;10464271;28;20095;-76
2023/02/08 00:19:04;;;;;;;77.53;40.08;;;;;;;-6.95;98.18;102455.81;10463722;28;20116;-77
2023/02/08 00:24:05;;;;;;;81.93;39.20;;;;;;;-6.88;97.28;102451.28;10463145;28;20371;-78
2023/02/08 00:29:07;;;;;;;72.57;37.55;;;;;;;-6.94;97.17;102452.50;10461070;28;20120;-76
2023/02/08 00:34:09;;;;;;;62.50;35.35;;;;;;;-7.19;97.53;102457.34;10443914;28;20120;-77
2023/02/08 00:39:10;;;;;;;82.57;40.38;;;;;;;-6.99;97.74;102451.25;10462320;28;20414;-77
2023/02/08 00:44:14;;;;;;;71.63;39.00;;;;;;;-7.14;97.41;102446.72;10483411;22;20036;-79
2023/02/08 00:49:16;;;;;;;77.75;39.45;;;;;;;-7.31;98.16;102453.81;10503992;28;20071;-79
2023/02/08 00:54:20;;;;;;;78.95;39.35;;;;;;;-7.27;98.71;102441.41;10559755;28;20051;-79
2023/02/08 00:59:22;;;;;;;82.13;39.85;;;;;;;-7.28;98.53;102442.19;10542701;28;20052;-79
2023/02/08 01:04:24;;;;;;;78.93;38.80;;;;;;;-7.32;97.66;102434.16;10540612;28;20451;-79
2023/02/08 01:09:25;;;;;;;70.90;36.65;;;;;;;-7.48;97.87;102432.97;10539838;28;20048;-79
2023/02/08 01:14:27;;;;;;;76.63;38.92;;;;;;;-7.44;97.99;102432.41;10526092;28;20111;-79
2023/02/08 01:19:29;;;;;;;74.28;39.67;;;;;;;-7.33;97.67;102424.72;10541598;28;20119;-79
2023/02/08 01:24:31;;;;;;;81.10;40.40;;;;;;;-7.06;95.47;102415.75;10559982;28;20059;-80
2023/02/08 01:29:33;;;;;;;77.97;38.90;;;;;;;-7.08;94.25;102423.31;10525035;28;20056;-78
2023/02/08 01:34:35;;;;;;;79.35;40.08;;;;;;;-7.34;94.74;102417.84;10560920;28;20048;-79
2023/02/08 01:39:38;;;;;;;68.88;37.25;;;;;;;-7.69;95.41;102416.84;10559835;28;20059;-80
2023/02/08 01:45:08;;;;;;;81.30;39.17;;;;;;;-7.53;97.08;102406.16;10559141;28;20044;-80
2023/02/08 01:50:10;;;;;;;79.70;39.88;;;;;;;-7.42;95.95;102417.22;10543045;28;20044;-80
2023/02/08 01:55:17;;;;;;;76.55;37.92;;;;;;;-7.72;96.36;102406.38;10541727;28;20120;-80
2023/02/08 02:00:21;;;;;;;75.53;36.97;;;;;;;-7.53;95.79;102405.25;10541709;28;20040;-80
2023/02/08 02:05:43;;;;;;;73.70;37.60;;;;;;;-7.65;96.03;102411.19;10559087;28;20040;-80
2023/02/08 02:10:48;;;;;;;74.13;37.20;;;;;;;-7.29;94.57;102408.88;10557555;28;20044;-79
2023/02/08 02:15:50;;;;;;;62.10;34.65;;;;;;;-7.31;93.55;102397.63;10538960;28;20048;-78
2023/02/08 02:21:36;;;;;;;81.20;37.25;;;;;;;-7.60;94.73;102406.44;10565321;28;20040;-79
2023/02/08 02:26:44;;;;;;;80.50;34.08;;;;;;;-7.40;94.32;102400.34;10554304;28;20060;-80
2023/02/08 02:32:36;;;;;;;59.55;31.30;;;;;;;-7.68;94.35;102392.19;10548177;28;20032;-79
2023/02/08 02:38:14;;;;;;;67.63;35.33;;;;;;;-7.52;95.34;102392.63;10562102;28;20081;-78
2023/02/08 02:43:44;;;;;;;66.60;33.17;;;;;;;-7.78;94.92;102394.78;10514491;28;20050;-78
2023/02/08 02:49:03;;;;;;;65.13;34.63;;;;;;;-7.64;95.88;102392.53;10547539;28;20074;-80
2023/02/08 02:54:19;;;;;;;58.40;29.85;;;;;;;-7.73;92.81;102394.38;10563944;28;20040;-79
2023/02/08 02:59:22;;;;;;;48.60;23.60;;;;;;;-7.72;94.19;102391.03;10564622;28;20124;-79
2023/02/08 03:04:32;;;;;;;57.13;29.48;;;;;;;-7.77;93.41;102388.91;10545468;28;20573;-80
2023/02/08 03:09:51;;;;;;;47.08;27.17;;;;;;;-7.97;94.68;102390.78;10566141;28;20044;-81
2023/02/08 03:15:12;;;;;;;64.45;30.23;;;;;;;-8.05;96.04;102385.81;10546387;28;20048;-80
2023/02/08 03:20:22;;;;;;;52.80;28.88;;;;;;;-7.68;94.68;102387.97;10546568;28;20044;-79
2023/02/08 03:25:36;;;;;;;56.58;28.25;;;;;;;-8.00;93.80;102392.19;10563268;28;20046;-80
2023/02/08 03:30:50;;;;;;;58.50;28.35;;;;;;;-7.83;93.96;102396.97;10544134;28;20429;-80
2023/02/08 03:36:14;;;;;;;57.05;28.50;;;;;;;-7.96;94.57;102410.41;10547780;28;20040;-81
2023/02/08 03:41:30;;;;;;;56.90;29.30;;;;;;;-8.20;95.49;102411.84;10564199;28;20501;-79
2023/02/08 03:46:37;;;;;;;45.75;27.48;;;;;;;-8.19;96.23;102422.94;10562001;28;20505;-81
2023/02/08 03:51:40;;;;;;;58.47;27.93;;;;;;;-7.94;95.79;102418.19;10562392;28;20486;-79
2023/02/08 03:56:45;;;;;;;46.22;26.92;;;;;;;-7.88;94.70;102432.34;10562679;28;20438;-78
2023/02/08 04:01:52;;;;;;;50.72;27.35;;;;;;;-8.04;94.38;102428.44;10542882;28;20083;-80
2023/02/08 04:06:54;;;;;;;63.25;27.35;;;;;;;-8.04;93.35;102431.88;10544934;28;20048;-79
2023/02/08 04:11:56;;;;;;;50.35;26.83;;;;;;;-8.29;93.91;102433.16;10543767;28;20401;-81
2023/02/08 04:16:58;;;;;;;48.38;25.83;;;;;;;-8.08;94.06;102434.03;10544052;28;20417;-81
2023/02/08 04:22:00;;;;;;;52.33;26.35;;;;;;;-8.31;94.08;102440.72;10543103;28;20040;-81
2023/02/08 04:27:02;;;;;;;57.13;29.40;;;;;;;-8.33;94.55;102434.56;10543570;28;20419;-80
2023/02/08 04:32:10;;;;;;;47.17;27.38;;;;;;;-8.38;95.21;102430.78;10561854;28;20042;-80
2023/02/08 04:37:12;;;;;;;59.88;29.17;;;;;;;-8.14;95.48;102430.22;10560878;28;20465;-81
2023/02/08 04:42:14;;;;;;;54.45;28.95;;;;;;;-8.11;95.49;102427.03;10561642;28;20036;-81
2023/02/08 04:47:15;;;;;;;57.20;29.30;;;;;;;-8.24;95.49;102420.00;10561778;28;20131;-79
2023/02/08 04:52:17;;;;;;;65.78;32.28;;;;;;;-8.25;96.85;102419.91;10561372;28;20122;-81
2023/02/08 04:57:19;;;;;;;63.80;31.20;;;;;;;-8.17;97.96;102412.09;10547849;28;20043;-81
2023/02/08 05:02:21;;;;;;;67.20;31.42;;;;;;;-7.81;98.90;102413.28;10545685;28;20409;-81
2023/02/08 05:07:23;;;;;;;67.78;30.90;;;;;;;-7.68;98.30;102407.50;10563484;28;20044;-80
2023/02/08 05:12:25;;;;;;;60.42;29.75;;;;;;;-7.71;97.71;102397.94;10563228;28;20096;-81
2023/02/08 05:17:26;;;;;;;62.83;30.42;;;;;;;-7.62;97.87;102403.75;10562837;28;20068;-80
2023/02/08 05:22:28;;;;;;;62.13;29.95;;;;;;;-7.57;97.26;102406.66;10563505;28;20098;-82
2023/02/08 05:27:30;;;;;;;65.15;29.65;;;;;;;-7.82;96.89;102413.19;10561851;28;20109;-79
2023/02/08 05:32:32;;;;;;;70.25;32.70;;;;;;;-7.87;97.89;102405.16;10561092;28;20062;-80
2023/02/08 05:37:34;;;;;;;69.07;34.13;;;;;;;-7.84;98.54;102419.81;10560781;28;20505;-79
2023/02/08 05:42:36;;;;;;;75.22;34.10;;;;;;;-7.89;98.50;102417.78;10542695;28;20044;-78
2023/02/08 05:47:37;;;;;;;75.30;33.65;;;;;;;-7.94;98.50;102421.63;10561251;28;20044;-79
2023/02/08 05:52:39;;;;;;;75.90;34.38;;;;;;;-7.81;98.50;102415.84;10563477;28;20067;-79
2023/02/08 05:57:41;;;;;;;77.43;34.42;;;;;;;-7.80;98.71;102415.06;10573568;28;20413;-78
2023/02/08 06:02:43;;;;;;;81.63;36.45;;;;;;;-7.83;98.74;102414.84;10553043;28;20036;-77
2023/02/08 06:07:45;;;;;;;79.25;35.92;;;;;;;-7.42;98.67;102422.34;10552870;28;20054;-78
2023/02/08 06:12:46;;;;;;;76.35;36.50;;;;;;;-7.64;98.29;102425.75;10539394;28;20036;-77
2023/02/08 06:17:49;;;;;;;81.13;36.03;;;;;;;-7.68;98.19;102428.81;10553654;28;20055;-77
2023/02/08 06:22:50;;;;;;;76.78;34.60;;;;;;;-7.66;98.50;102423.81;10555644;28;20037;-78
2023/02/08 06:27:52;;;;;;;76.93;34.80;;;;;;;-7.36;96.94;102439.03;10557921;28;20115;-77
2023/02/08 06:32:57;;;;;;;70.95;34.63;;;;;;;-7.59;96.33;102445.66;10555627;28;20064;-78
2023/02/08 06:37:58;;;;;;;75.03;34.72;;;;;;;-7.58;96.24;102449.97;10555347;28;20040;-78
2023/02/08 06:43:00;;;;;;;85.70;36.47;;;;;;;-7.39;95.75;102456.69;10568624;22;20511;-76
2023/02/08 06:48:05;;;;;;;77.47;35.17;;;;;;;-7.34;94.92;102451.94;10552849;28;20040;-75
2023/02/08 06:53:07;;;;;;;87.30;34.65;;;;;;;-7.56;94.96;102461.22;10548833;28;20048;-74
2023/02/08 06:58:11;;;;;;;78.70;35.33;;;;;;;-7.44;95.76;102469.84;10547023;28;20481;-75
2023/02/08 07:03:14;;;;;;;83.28;36.67;;;;;;;-6.95;93.73;102468.59;10527772;28;20050;-74
2023/02/08 07:08:16;;;;;;;79.95;35.30;;;;;;;-7.16;93.58;102473.81;10526995;28;20040;-76
2023/02/08 07:13:18;;;;;;;76.53;34.85;;;;;;;-7.28;94.15;102462.63;10547869;28;20040;-75
2023/02/08 07:18:20;;;;;;;89.43;38.50;;;;;;;-7.28;94.76;102466.84;10529341;28;20063;-74
2023/02/08 07:23:21;;;;;;;84.85;37.70;;;;;;;-6.92;94.33;102469.72;10546672;28;20083;-76
2023/02/08 07:28:23;;;;;;;87.43;39.03;;;;;;;-6.80;95.21;102466.34;10528948;28;20081;-75
2023/02/08 07:33:25;;;;;;;77.03;37.08;;;;;;;-6.20;92.97;102469.19;10546433;28;20379;-75
2023/02/08 07:38:27;;;;;;;82.85;38.90;;;;;;;-5.99;91.39;102464.78;10527789;28;20044;-75
2023/02/08 07:43:29;;;;;;;89.05;40.35;;;;;;;-6.02;91.67;102475.72;10545193;28;20493;-77
2023/02/08 07:48:34;;;;;;;83.30;38.33;;;;;;;-5.92;91.18;102469.59;10527422;28;20093;-76
2023/02/08 07:53:36;;;;;;;79.88;37.53;;;;;;;-5.93;91.66;102462.66;10527849;28;20048;-75
2023/02/08 07:58:38;;;;;;;82.63;38.80;;;;;;;-5.51;92.13;102454.63;10546054;28;20051;-75
2023/02/08 08:03:40;;;;;;;84.63;40.80;;;;;;;-5.20;90.36;102461.94;10546874;28;20416;-75
2023/02/08 08:08:46;;;;;;;90.75;41.78;;;;;;;-5.13;89.36;102469.28;10547021;28;20070;-76
2023/02/08 08:13:48;;;;;;;92.57;41.75;;;;;;;-5.10;90.34;102477.16;10548339;28;20082;-76
2023/02/08 08:18:50;;;;;;;87.07;40.88;;;;;;;-5.23;91.03;102477.09;10544213;28;20044;-76
2023/02/08 08:23:52;;;;;;;85.10;41.00;;;;;;;-4.78;89.39;102483.66;10545356;28;20040;-76
2023/02/08 08:28:54;;;;;;;85.70;41.83;;;;;;;-4.73;90.03;102477.19;10527378;28;20086;-76
2023/02/08 08:33:56;;;;;;;90.80;43.03;;;;;;;-4.40;87.79;102476.03;10545795;28;20040;-75
2023/02/08 08:38:57;;;;;;;96.53;43.85;;;;;;;-4.22;87.29;102473.78;10526287;28;20404;-75
2023/02/08 08:43:59;;;;;;;103.80;48.22;;;;;;;-4.00;85.76;102466.72;10545576;28;20044;-76
2023/02/08 08:49:02;;;;;;;91.95;43.90;;;;;;;-4.09;85.63;102479.84;10527816;28;20051;-75
2023/02/08 08:54:04;;;;;;;92.13;42.92;;;;;;;-3.76;83.94;102472.59;10526890;28;20044;-75
2023/02/08 08:59:06;;;;;;;94.35;46.63;;;;;;;-3.70;84.53;102473.00;10545584;28;20473;-74
2023/02/08 09:04:09;;;;;;;95.20;45.30;;;;;;;-3.70;84.21;102470.41;10544814;28;20040;-76
2023/02/08 09:09:13;;;;;;;90.00;42.85;;;;;;;-3.46;83.69;102476.22;10545334;28;20051;-76
2023/02/08 09:14:15;;;;;;;85.15;43.70;;;;;;;-3.19;81.62;102474.53;10525816;28;20040;-75
2023/02/08 09:19:16;;;;;;;89.97;42.88;;;;;;;-2.97;81.27;102470.72;10524545;28;20056;-75
2023/02/08 09:24:18;;;;;;;80.88;40.95;;;;;;;-2.98;80.03;102468.94;10544180;28;20054;-75
2023/02/08 09:29:20;;;;;;;70.97;34.70;;;;;;;-2.59;77.09;102473.97;10530189;28;20054;-75
2023/02/08 09:34:22;;;;;;;72.93;36.17;;;;;;;-2.41;74.82;102476.75;10553194;28;20550;-75
2023/02/08 09:39:24;;;;;;;70.97;35.22;;;;;;;-2.34;74.90;102484.06;10535676;28;20099;-75
2023/02/08 09:44:40;;;;;;;70.35;35.47;;;;;;;-2.26;75.33;102483.59;10553231;28;20042;-74
2023/02/08 09:49:59;;;;;;;58.58;31.63;;;;;;;-1.92;72.80;102497.69;10554069;28;20044;-75
2023/02/08 09:55:12;;;;;;;51.95;26.67;;;;;;;-2.04;71.17;102497.88;10553093;28;20093;-75
2023/02/08 10:00:20;;;;;;;43.47;26.38;;;;;;;-1.99;71.00;102493.00;10553266;28;20413;-75
2023/02/08 10:05:25;;;;;;;47.28;26.70;;;;;;;-1.71;69.53;102494.56;10538281;28;20043;-75
2023/02/08 10:10:53;;;;;;;41.60;25.17;;;;;;;-1.62;67.57;102482.22;10555807;28;20046;-75
2023/02/08 10:16:10;;;;;;;38.63;25.52;;;;;;;-1.70;68.55;102481.75;10538046;28;20054;-75
2023/02/08 10:21:33;;;;;;;45.55;26.40;;;;;;;-1.70;69.09;102484.34;10538360;28;20067;-75
2023/02/08 10:26:37;;;;;;;41.70;26.00;;;;;;;-1.65;68.23;102475.16;10537994;28;20044;-75
2023/02/08 10:32:08;;;;;;;39.03;24.77;;;;;;;-1.67;68.87;102466.47;10537112;28;20572;-75
2023/02/08 10:37:20;;;;;;;42.00;24.98;;;;;;;-1.65;68.39;102464.84;10535834;28;20070;-75
2023/02/08 10:42:24;;;;;;;37.38;25.83;;;;;;;-1.46;68.10;102459.06;10536227;28;20040;-76
2023/02/08 10:47:46;;;;;;;41.72;24.52;;;;;;;-1.13;66.74;102451.38;10534632;28;20043;-75
2023/02/08 10:52:48;;;;;;;39.72;25.88;;;;;;;-0.83;64.97;102441.81;10548908;28;20516;-73
2023/02/08 10:57:54;;;;;;;41.10;24.27;;;;;;;-0.72;64.55;102438.09;10513756;28;20146;-73
2023/02/08 11:03:02;;;;;;;34.47;23.42;;;;;;;-0.25;62.33;102429.34;10528746;28;20048;-74
2023/02/08 11:08:07;;;;;;;38.65;25.00;;;;;;;-0.52;64.96;102419.38;10547932;28;20051;-74
2023/02/08 11:13:12;;;;;;;41.88;24.60;;;;;;;0.28;62.40;102407.81;10547335;28;20047;-75
2023/02/08 11:18:18;;;;;;;34.30;24.05;;;;;;;0.55;60.19;102412.53;10547339;28;20047;-74
2023/02/08 11:23:22;;;;;;;35.03;24.20;;;;;;;1.08;57.68;102412.41;10548200;28;20047;-73
2023/02/08 11:28:28;;;;;;;38.05;24.65;;;;;;;1.27;56.84;102416.69;10550448;28;20051;-74
2023/02/08 11:33:30;;;;;;;39.05;23.63;;;;;;;1.21;55.75;102412.13;10531534;28;20143;-74
2023/02/08 11:38:34;;;;;;;30.13;21.70;;;;;;;1.05;56.63;102426.91;10549608;28;20047;-75
2023/02/08 11:43:36;;;;;;;30.88;22.13;;;;;;;1.33;59.10;102418.66;10531425;28;20036;-75
2023/02/08 11:48:47;;;;;;;23.20;20.17;;;;;;;2.04;54.05;102410.47;10515967;28;20496;-75
2023/02/08 11:53:49;;;;;;;31.38;20.95;;;;;;;2.59;51.09;102399.69;10551953;28;20130;-75
2023/02/08 11:58:59;;;;;;;24.55;20.35;;;;;;;1.76;54.09;102403.25;10517701;28;20097;-75
2023/02/08 12:04:05;;;;;;;30.48;21.33;;;;;;;1.77;54.58;102399.81;10517843;28;20064;-75
2023/02/08 12:09:22;;;;;;;26.45;19.48;;;;;;;1.99;52.86;102402.50;10535365;28;20086;-75
2023/02/08 12:14:40;;;;;;;;;;;;;;;1.10;54.73;102408.16;10536235;28;20040;-77
2023/02/08 12:19:51;;;;;;;27.23;19.67;;;;;;;1.46;54.46;102403.72;10536140;28;19987;-75
2023/02/08 12:25:15;;;;;;;27.50;20.30;;;;;;;1.41;55.34;102386.19;10554852;28;20077;-75
2023/02/08 12:30:22;;;;;;;31.17;20.67;;;;;;;1.14;54.69;102378.97;10553626;28;20043;-76
2023/02/08 12:35:53;;;;;;;;;;;;;;;0.81;55.90;102373.19;10538039;28;20062;-75
2023/02/08 12:41:14;;;;;;;28.17;20.25;;;;;;;0.79;56.30;102387.75;10457470;28;19920;-75
2023/02/08 12:46:28;;;;;;;30.43;19.53;;;;;;;0.64;56.59;102380.19;10434638;22;1281915;-78
2023/02/08 12:51:45;;;;;;;28.42;18.88;;;;;;;0.72;57.04;102396.09;10465745;28;20808;-78
2023/02/08 12:56:48;;;;;;;25.02;20.50;;;;;;;0.52;57.60;102383.91;10465045;28;20047;-78
2023/02/08 13:02:15;;;;;;;26.10;19.90;;;;;;;0.28;57.79;102381.06;10467459;28;20486;-78
2023/02/08 13:07:22;;;;;;;30.65;19.83;;;;;;;0.38;57.00;102376.38;10466673;28;20478;-78
2023/02/08 13:12:30;;;;;;;29.58;19.90;;;;;;;0.32;57.76;102378.69;10461812;28;20043;-77
2023/02/08 13:17:40;;;;;;;;;;;;;;;0.38;57.12;102353.09;10469679;28;20112;-80
2023/02/08 13:22:42;;;;;;;31.80;20.88;;;;;;;0.34;57.03;102346.00;10469847;28;19931;-77
2023/02/08 13:27:44;;;;;;;32.67;19.98;;;;;;;0.41;57.73;102340.31;10466779;28;20045;-78
2023/02/08 13:32:49;;;;;;;25.63;18.33;;;;;;;0.36;55.87;102339.22;10469984;28;20048;-78
2023/02/08 13:38:01;;;;;;;27.50;19.17;;;;;;;0.28;57.50;102325.03;10469472;28;20099;-80
2023/02/08 13:43:07;;;;;;;25.10;17.50;;;;;;;0.35;56.32;102321.00;10473355;28;20036;-78
2023/02/08 13:48:13;;;;;;;17.58;15.90;;;;;;;-0.09;56.22;102328.47;10516259;28;20048;-78
2023/02/08 13:53:16;;;;;;;25.45;15.90;;;;;;;0.11;55.59;102336.28;10514325;28;20048;-79
2023/02/08 13:58:29;;;;;;;25.02;16.85;;;;;;;0.00;55.93;102335.78;10514245;28;20083;-79
2023/02/08 14:03:33;;;;;;;18.73;16.75;;;;;;;-0.12;57.48;102327.44;10497380;28;20094;-79
2023/02/08 14:08:38;;;;;;;21.85;16.63;;;;;;;-0.23;58.76;102336.34;10516299;28;20119;-79
2023/02/08 14:13:53;;;;;;;17.55;15.73;;;;;;;0.18;55.69;102333.19;10510470;28;20504;-79
2023/02/08 14:19:03;;;;;;;17.92;14.85;;;;;;;0.18;55.26;102334.06;10522845;28;20064;-79
2023/02/08 14:24:18;;;;;;;18.13;14.32;;;;;;;0.20;56.29;102327.25;10503789;28;20079;-79
2023/02/08 14:29:23;;;;;;;15.98;13.18;;;;;;;0.06;55.72;102327.44;10522292;28;20051;-79
2023/02/08 14:34:32;;;;;;;16.50;14.60;;;;;;;0.20;55.07;102324.66;10521257;28;20044;-79
2023/02/08 14:39:36;;;;;;;15.55;12.73;;;;;;;-0.01;56.95;102321.06;10520043;28;20052;-79
2023/02/08 14:44:38;;;;;;;19.17;15.05;;;;;;;-0.06;57.38;102312.19;10531936;28;20413;-79
2023/02/08 14:49:44;;;;;;;21.63;15.35;;;;;;;-0.07;58.15;102324.25;10544550;28;20055;-79
2023/02/08 14:55:02;;;;;;;20.05;17.17;;;;;;;0.00;57.40;102312.50;10555178;28;20050;-76
2023/02/08 15:00:19;;;;;;;24.42;15.77;;;;;;;0.12;57.41;102310.47;10548299;28;20043;-76
2023/02/08 15:05:24;;;;;;;20.13;17.80;;;;;;;-0.03;57.85;102312.34;10544565;28;20440;-75
2023/02/08 15:10:29;;;;;;;22.60;18.73;;;;;;;-0.02;58.42;102315.00;10547946;28;20066;-75
2023/02/08 15:15:40;;;;;;;22.58;18.20;;;;;;;-0.01;58.54;102308.13;10551227;28;20089;-78
2023/02/08 15:20:43;;;;;;;25.13;19.60;;;;;;;-0.15;59.33;102297.13;10544825;28;20040;-76
2023/02/08 15:25:55;;;;;;;26.60;20.30;;;;;;;-0.18;59.44;102296.97;10541369;28;20036;-76
2023/02/08 15:31:05;;;;;;;28.05;19.30;;;;;;;-0.24;59.37;102282.91;10544197;28;20143;-76
2023/02/08 15:36:13;;;;;;;20.90;17.92;;;;;;;-0.42;59.84;102291.53;10526675;28;20089;-77
2023/02/08 15:41:24;;;;;;;21.88;18.13;;;;;;;-0.39;59.34;102276.19;10526226;28;20131;-76
2023/02/08 15:46:27;;;;;;;22.15;18.13;;;;;;;-0.35;59.15;102282.38;10544168;28;20036;-77
2023/02/08 15:51:29;;;;;;;20.88;17.73;;;;;;;-0.74;60.45;102271.84;10543768;28;20089;-77
2023/02/08 15:56:35;;;;;;;20.60;18.40;;;;;;;-0.69;60.53;102274.66;10552362;28;20408;-78
2023/02/08 16:01:46;;;;;;;26.35;19.05;;;;;;;-1.04;61.89;102269.50;10548683;28;20048;-78
2023/02/08 16:06:52;;;;;;;26.13;18.48;;;;;;;-1.11;62.41;102254.50;10514828;28;20577;-78
2023/02/08 16:11:59;;;;;;;22.88;18.75;;;;;;;-1.20;62.90;102253.13;10550743;28;20040;-78
2023/02/08 16:17:01;;;;;;;24.55;19.20;;;;;;;-1.17;62.66;102250.72;10551516;28;20123;-78
2023/02/08 16:22:24;;;;;;;29.13;20.15;;;;;;;-1.14;63.30;102262.09;10562424;28;20555;-78
2023/02/08 16:27:29;;;;;;;23.98;18.80;;;;;;;-1.47;64.66;102262.91;10506745;28;20060;-78
2023/02/08 16:32:38;;;;;;;29.00;20.63;;;;;;;-1.32;64.32;102259.47;10518638;28;20050;-77
2023/02/08 16:37:40;;;;;;;30.13;19.38;;;;;;;-1.20;63.99;102247.97;10548212;28;20217;-77
2023/02/08 16:42:43;;;;;;;34.47;21.58;;;;;;;-1.34;64.80;102250.72;10545097;28;20054;-78
2023/02/08 16:47:54;;;;;;;30.92;20.98;;;;;;;-1.29;64.55;102244.09;10528058;28;20448;-78
2023/02/08 16:53:01;;;;;;;29.95;20.48;;;;;;;-1.20;64.26;102241.13;10504773;28;20040;-78
2023/02/08 16:58:03;;;;;;;33.85;22.17;;;;;;;-1.27;64.41;102234.78;10518679;28;20047;-78
2023/02/08 17:03:05;;;;;;;34.92;21.60;;;;;;;-1.31;64.75;102229.38;10545992;28;20043;-78
2023/02/08 17:08:12;;;;;;;31.45;21.85;;;;;;;-1.22;65.07;102234.13;10556828;28;20052;-78
2023/02/08 17:13:14;;;;;;;34.28;22.75;;;;;;;-1.61;66.81;102241.56;10602902;28;20036;-78
2023/02/08 17:18:22;;;;;;;33.03;21.92;;;;;;;-2.10;68.65;102249.22;10602984;28;20040;-78
2023/02/08 17:23:24;;;;;;;26.25;21.63;;;;;;;-1.80;67.72;102247.44;10602175;28;20027;-78
2023/02/08 17:28:26;;;;;;;33.08;22.10;;;;;;;-2.17;69.43;102242.88;10600556;28;20404;-78
2023/02/08 17:33:28;;;;;;;36.90;22.63;;;;;;;-1.77;68.25;102234.72;10582397;28;20093;-78
2023/02/08 17:38:30;;;;;;;34.95;22.52;;;;;;;-2.05;69.02;102243.50;10584678;28;20051;-79
2023/02/08 17:43:32;;;;;;;36.90;24.25;;;;;;;-2.20;70.40;102234.06;10605842;28;20051;-79
2023/02/08 17:48:34;;;;;;;40.05;23.92;;;;;;;-2.16;70.34;102229.16;10603978;28;20051;-79
2023/02/08 17:53:39;;;;;;;35.20;24.92;;;;;;;-2.18;70.41;102224.72;10614847;28;20077;-79
2023/02/08 17:58:41;;;;;;;38.45;23.65;;;;;;;-2.13;70.03;102221.59;10619306;28;20059;-79
2023/02/08 18:03:47;;;;;;;41.83;23.30;;;;;;;-1.80;68.90;102217.38;10617534;28;20109;-80
2023/02/08 18:08:50;;;;;;;35.33;23.23;;;;;;;-2.01;69.32;102212.75;10597594;28;20044;-81
2023/02/08 18:13:53;;;;;;;44.13;25.05;;;;;;;-1.82;68.89;102213.81;10616852;28;20036;-79
2023/02/08 18:18:56;;;;;;;47.88;27.10;;;;;;;-2.03;69.12;102198.13;10595708;28;20051;-80
2023/02/08 18:24:02;;;;;;;52.42;28.17;;;;;;;-2.21;69.94;102212.59;10614460;28;20039;-80
2023/02/08 18:29:05;;;;;;;44.45;26.05;;;;;;;-1.95;69.97;102210.50;10614072;28;20389;-80
2023/02/08 18:34:07;;;;;;;41.78;24.33;;;;;;;-2.31;70.77;102205.13;10594600;28;20116;-80
2023/02/08 18:39:17;;;;;;;45.25;26.13;;;;;;;-2.33;71.28;102212.78;10595471;28;20096;-80
2023/02/08 18:44:19;;;;;;;40.08;25.70;;;;;;;-2.65;72.66;102210.09;10615361;22;20041;-79
2023/02/08 18:49:21;;;;;;;65.13;31.27;;;;;;;-2.62;73.14;102212.84;10463842;28;20049;-80
2023/02/08 18:54:23;;;;;;;81.45;38.63;;;;;;;-2.65;73.22;102204.97;10495405;28;20397;-81
2023/02/08 18:59:26;;;;;;;53.33;28.30;;;;;;;-2.62;73.53;102198.28;10511728;28;20426;-80
2023/02/08 19:04:27;;;;;;;42.58;26.00;;;;;;;-2.94;74.76;102191.31;10528053;28;20048;-81
2023/02/08 19:09:29;;;;;;;47.45;26.20;;;;;;;-3.10;75.62;102180.91;10529465;28;20037;-81
2023/02/08 19:14:31;;;;;;;51.35;28.55;;;;;;;-3.12;76.11;102167.97;10509530;28;20049;-82
2023/02/08 19:19:33;;;;;;;53.10;27.08;;;;;;;-2.96;76.66;102158.59;10513572;28;20064;-81
2023/02/08 19:24:34;;;;;;;56.22;27.55;;;;;;;-3.24;76.95;102146.69;10532936;28;20044;-81
2023/02/08 19:29:37;;;;;;;53.65;27.40;;;;;;;-2.88;77.00;102132.47;10518339;28;20048;-80
2023/02/08 19:34:38;;;;;;;46.00;26.27;;;;;;;-2.80;75.01;102122.59;10510167;28;20044;-80
2023/02/08 19:39:40;;;;;;;56.72;27.17;;;;;;;-2.74;75.11;102119.50;10529045;28;20052;-82
2023/02/08 19:44:42;;;;;;;48.75;27.45;;;;;;;-2.96;75.61;102113.16;10539743;28;20505;-82
2023/02/08 19:49:43;;;;;;;51.10;25.65;;;;;;;-2.98;75.62;102111.28;10528924;28;20108;-81
2023/02/08 19:54:46;;;;;;;44.97;25.70;;;;;;;-3.10;75.93;102101.16;10505423;28;20045;-82
2023/02/08 19:59:48;;;;;;;43.97;24.05;;;;;;;-3.34;77.21;102095.53;10505036;28;20063;-81
2023/02/08 20:04:50;;;;;;;42.47;25.55;;;;;;;-3.37;77.67;102101.38;10503741;28;20390;-82
2023/02/08 20:09:51;;;;;;;43.90;24.63;;;;;;;-2.99;75.68;102096.66;10503237;28;20094;-81
2023/02/08 20:14:53;;;;;;;38.80;23.45;;;;;;;-3.17;76.49;102087.09;10502645;28;20048;-81
2023/02/08 20:19:55;;;;;;;43.28;23.65;;;;;;;-3.23;76.74;102089.31;10502927;28;20522;-81
2023/02/08 20:24:56;;;;;;;34.58;22.52;;;;;;;-3.21;77.06;102069.72;10502074;28;20075;-82
2023/02/08 20:29:58;;;;;;;37.80;22.52;;;;;;;-3.20;76.15;102062.88;10503434;28;20136;-82
2023/02/08 20:35:00;;;;;;;30.75;21.45;;;;;;;-2.89;74.38;102055.16;10502059;28;20036;-80
2023/02/08 20:40:03;;;;;;;30.05;20.05;;;;;;;-3.27;75.20;102051.38;10520610;28;20051;-80
2023/02/08 20:45:07;;;;;;;30.05;20.48;;;;;;;-3.13;75.61;102049.56;10504265;28;20051;-80
2023/02/08 20:50:09;;;;;;;33.47;19.63;;;;;;;-3.08;74.56;102041.28;10507559;28;20052;-80
2023/02/08 20:55:20;;;;;;;22.17;15.93;;;;;;;-3.11;72.51;102038.53;10516600;28;20044;-80
2023/02/08 21:00:21;;;;;;;17.98;15.35;;;;;;;-3.08;71.95;102018.13;10537880;28;20067;-80
2023/02/08 21:05:34;;;;;;;16.23;13.00;;;;;;;-2.49;68.44;102011.88;10523459;28;20048;-81
2023/02/08 21:10:36;;;;;;;16.63;13.27;;;;;;;-2.59;68.58;102001.88;10523573;28;20056;-80
2023/02/08 21:15:42;;;;;;;14.07;12.07;;;;;;;-2.35;66.97;101999.69;10542687;28;20024;-79
2023/02/08 21:20:44;;;;;;;15.45;11.20;;;;;;;-2.13;65.43;101996.53;10518928;28;20142;-79
2023/02/08 21:25:46;;;;;;;14.27;12.40;;;;;;;-2.01;64.69;101984.28;10527197;28;20055;-79
2023/02/08 21:31:01;;;;;;;15.75;12.30;;;;;;;-1.76;63.74;101970.06;10501521;28;20120;-80
2023/02/08 21:36:09;;;;;;;12.05;10.85;;;;;;;-1.94;63.98;101958.03;10492829;28;20037;-78
2023/02/08 21:41:22;;;;;;;14.50;10.70;;;;;;;-1.86;63.36;101963.53;10506620;28;20056;-79
2023/02/08 21:46:26;;;;;;;12.88;10.65;;;;;;;-1.78;63.13;101962.22;10518422;28;20068;-78
2023/02/08 21:56:49;;;;;;;11.73;10.52;;;;;;;-1.93;63.08;101935.72;10519646;28;20079;-80
2023/02/08 22:01:51;;;;;;;12.10;10.82;;;;;;;-1.89;63.68;101922.16;10515690;28;20049;-80
2023/02/08 22:06:52;;;;;;;13.68;10.80;;;;;;;-1.89;63.05;101925.63;10496469;28;20056;-80
2023/02/08 22:11:55;;;;;;;12.20;11.02;;;;;;;-1.88;63.34;101905.88;10494282;28;20040;-80
2023/02/08 22:16:56;;;;;;;11.68;10.50;;;;;;;-2.00;63.41;101910.44;10495359;28;20037;-79
2023/02/08 22:21:58;;;;;;;12.15;10.57;;;;;;;-2.00;63.05;101919.03;10528260;28;20091;-79
2023/02/08 22:27:00;;;;;;;12.48;11.18;;;;;;;-2.00;62.98;101919.03;10538386;28;20070;-79
2023/02/08 22:32:04;;;;;;;18.27;11.63;;;;;;;-1.91;62.75;101918.59;10511863;28;20078;-79
2023/02/08 22:37:05;;;;;;;11.70;10.45;;;;;;;-2.06;63.47;101904.16;10517778;28;20040;-79
2023/02/08 22:42:12;;;;;;;12.40;10.88;;;;;;;-1.84;62.24;101894.91;10520391;28;20068;-79
2023/02/08 22:47:13;;;;;;;14.18;10.75;;;;;;;-2.15;63.31;101892.53;10522108;28;20048;-80
2023/02/08 22:52:16;;;;;;;12.50;10.48;;;;;;;-1.97;62.95;101892.56;10525566;28;20127;-79
2023/02/08 22:57:18;;;;;;;11.65;10.27;;;;;;;-2.03;62.49;101890.56;10535757;28;20025;-79
2023/02/08 23:02:20;;;;;;;12.55;11.25;;;;;;;-2.00;62.17;101884.66;10522852;28;20555;-80
2023/02/08 23:07:22;;;;;;;11.48;10.27;;;;;;;-2.00;62.01;101880.38;10533826;28;20040;-79